createdAt,value
2022-12-27T00:01:29.406Z,22.52
2022-12-27T00:03:56.936Z,22.53
2022-12-27T00:06:26.092Z,22.54
2022-12-27T00:08:54.412Z,22.51
2022-12-27T00:11:24.773Z,22.53
2022-12-27T00:13:52.487Z,22.54
2022-12-27T00:16:21.426Z,22.52
2022-12-27T00:18:49.564Z,22.52
2022-12-27T00:21:18.398Z,22.50
2022-12-27T00:23:48.723Z,22.52
2022-12-27T00:26:22.138Z,22.54
2022-12-27T00:28:50.384Z,22.48
2022-12-27T00:31:19.846Z,22.55
2022-12-27T00:33:50.094Z,22.56
2022-12-27T00:36:21.053Z,22.57
2022-12-27T00:38:49.882Z,22.50
2022-12-27T00:41:18.345Z,22.57
2022-12-27T00:43:46.333Z,22.58
2022-12-27T00:46:14.036Z,22.57
2022-12-27T00:48:42.467Z,22.59
2022-12-27T00:51:16.238Z,22.58
2022-12-27T00:53:44.046Z,22.59
2022-12-27T00:56:18.520Z,22.58
2022-12-27T00:58:46.891Z,22.58
2022-12-27T01:01:17.916Z,22.59
2022-12-27T01:03:46.424Z,22.59
2022-12-27T01:06:16.324Z,22.57
2022-12-27T01:08:44.766Z,22.52
2022-12-27T01:11:13.228Z,22.58
2022-12-27T01:13:41.508Z,22.58
2022-12-27T01:16:18.870Z,22.59
2022-12-27T01:18:47.354Z,22.51
2022-12-27T01:23:43.552Z,22.56
2022-12-27T01:26:13.586Z,22.54
2022-12-27T01:28:41.028Z,22.52
2022-12-27T01:31:18.205Z,22.58
2022-12-27T01:33:46.025Z,22.53
2022-12-27T01:36:22.359Z,22.52
2022-12-27T01:38:50.112Z,22.59
2022-12-27T01:41:41.143Z,22.58
2022-12-27T01:44:39.822Z,22.59
2022-12-27T01:47:13.081Z,22.51
2022-12-27T01:49:58.250Z,22.58
2022-12-27T01:52:47.686Z,22.58
2022-12-27T01:55:27.589Z,22.59
2022-12-27T01:58:01.589Z,22.59
2022-12-27T02:00:31.842Z,22.57
2022-12-27T02:03:01.555Z,22.59
2022-12-27T02:05:29.196Z,22.60
2022-12-27T02:08:08.834Z,22.59
2022-12-27T02:10:36.892Z,22.53
2022-12-27T02:13:06.551Z,22.59
2022-12-27T02:15:34.075Z,22.59
2022-12-27T02:18:01.743Z,22.60
2022-12-27T02:20:38.672Z,22.54
2022-12-27T02:23:36.140Z,22.59
2022-12-27T02:26:37.681Z,22.59
2022-12-27T02:29:29.407Z,22.60
2022-12-27T02:32:00.015Z,22.53
2022-12-27T02:35:01.359Z,22.59
2022-12-27T02:37:32.955Z,22.60
2022-12-27T02:40:22.334Z,22.61
2022-12-27T02:43:10.237Z,22.58
2022-12-27T02:46:02.553Z,22.52
2022-12-27T02:48:48.672Z,22.59
2022-12-27T02:52:16.048Z,22.60
2022-12-27T02:55:01.719Z,22.60
2022-12-27T02:57:48.314Z,22.54
2022-12-27T03:00:40.047Z,22.61
2022-12-27T03:03:47.577Z,22.61
2022-12-27T03:06:40.263Z,22.61
2022-12-27T03:10:03.364Z,22.61
2022-12-27T03:13:08.357Z,22.60
2022-12-27T03:15:56.331Z,22.62
2022-12-27T03:18:48.755Z,22.61
2022-12-27T03:21:49.668Z,22.61
2022-12-27T03:24:42.853Z,22.61
2022-12-27T03:27:28.362Z,22.61
2022-12-27T03:30:17.156Z,22.59
2022-12-27T03:33:13.593Z,22.56
2022-12-27T03:36:09.841Z,22.61
2022-12-27T03:38:47.624Z,22.60
2022-12-27T03:41:41.718Z,22.60
2022-12-27T03:44:24.476Z,22.61
2022-12-27T03:47:13.599Z,22.60
2022-12-27T03:49:54.733Z,22.54
2022-12-27T03:52:44.021Z,22.61
2022-12-27T03:55:11.984Z,22.60
2022-12-27T03:57:40.838Z,22.60
2022-12-27T04:00:09.078Z,22.60
2022-12-27T04:02:44.209Z,22.59
2022-12-27T04:05:11.983Z,22.60
2022-12-27T04:07:39.301Z,22.60
2022-12-27T04:10:25.228Z,22.60
2022-12-27T04:13:11.284Z,22.60
2022-12-27T04:15:57.155Z,22.61
2022-12-27T04:18:43.047Z,22.54
2022-12-27T04:21:29.135Z,22.60
2022-12-27T04:24:15.321Z,22.55
2022-12-27T04:27:01.220Z,22.59
2022-12-27T04:29:47.260Z,22.59
2022-12-27T04:32:33.223Z,22.60
2022-12-27T04:35:00.564Z,22.59
2022-12-27T04:37:27.913Z,22.61
2022-12-27T04:40:13.971Z,22.53
2022-12-27T04:43:01.611Z,22.59
2022-12-27T04:45:47.523Z,22.60
2022-12-27T04:48:34.990Z,22.61
2022-12-27T04:51:21.282Z,22.61
2022-12-27T04:54:07.114Z,22.61
2022-12-27T04:56:34.527Z,22.55
2022-12-27T04:59:20.319Z,22.62
2022-12-27T05:02:07.200Z,22.56
2022-12-27T05:04:37.598Z,22.62
2022-12-27T05:07:28.099Z,22.62
2022-12-27T05:10:15.199Z,22.62
2022-12-27T05:13:01.260Z,22.57
2022-12-27T05:15:28.651Z,22.55
2022-12-27T05:17:57.483Z,22.54
2022-12-27T05:20:24.982Z,22.62
2022-12-27T05:23:11.077Z,22.56
2022-12-27T05:25:43.350Z,22.60
2022-12-27T05:28:12.027Z,22.62
2022-12-27T05:30:42.043Z,22.59
2022-12-27T05:33:09.438Z,22.63
2022-12-27T05:35:36.874Z,22.63
2022-12-27T05:38:05.627Z,22.63
2022-12-27T05:40:33.100Z,22.64
2022-12-27T05:43:02.961Z,22.63
2022-12-27T05:45:30.678Z,22.64
2022-12-27T05:47:59.872Z,22.63
2022-12-27T05:50:27.664Z,22.64
2022-12-27T05:53:11.076Z,22.64
2022-12-27T05:55:38.875Z,22.64
2022-12-27T05:58:07.132Z,22.58
2022-12-27T06:00:34.485Z,22.64
2022-12-27T06:03:03.199Z,22.59
2022-12-27T06:05:30.693Z,22.65
2022-12-27T06:07:58.150Z,22.64
2022-12-27T06:10:25.569Z,22.64
2022-12-27T06:12:52.917Z,22.64
2022-12-27T06:15:20.243Z,22.64
2022-12-27T06:17:47.671Z,22.64
2022-12-27T06:20:15.155Z,22.64
2022-12-27T06:22:43.244Z,22.64
2022-12-27T06:25:14.385Z,22.62
2022-12-27T06:27:41.945Z,22.65
2022-12-27T06:30:12.213Z,22.65
2022-12-27T06:32:39.745Z,22.66
2022-12-27T06:35:07.459Z,22.64
2022-12-27T06:37:34.914Z,22.64
2022-12-27T06:40:02.353Z,22.67
2022-12-27T06:42:30.992Z,22.65
2022-12-27T06:44:58.408Z,22.67
2022-12-27T06:47:25.782Z,22.63
2022-12-27T06:49:53.230Z,22.68
2022-12-27T06:52:22.117Z,22.62
2022-12-27T06:54:49.664Z,22.67
2022-12-27T06:57:16.984Z,22.62
2022-12-27T06:59:47.003Z,22.69
2022-12-27T07:02:19.699Z,22.63
2022-12-27T07:04:47.115Z,22.69
2022-12-27T07:07:16.037Z,22.68
2022-12-27T07:09:43.517Z,22.69
2022-12-27T07:12:10.936Z,22.69
2022-12-27T07:14:38.481Z,22.69
2022-12-27T07:17:05.917Z,22.69
2022-12-27T07:19:33.331Z,22.64
2022-12-27T07:22:00.694Z,22.70
2022-12-27T07:24:28.068Z,22.70
2022-12-27T07:26:55.769Z,22.70
2022-12-27T07:29:23.233Z,22.69
2022-12-27T07:31:50.667Z,22.71
2022-12-27T07:34:17.996Z,22.71
2022-12-27T07:36:45.323Z,22.69
2022-12-27T07:39:12.760Z,22.72
2022-12-27T07:41:40.209Z,22.74
2022-12-27T07:44:08.115Z,22.74
2022-12-27T07:46:36.152Z,22.76
2022-12-27T07:49:03.546Z,22.74
2022-12-27T07:51:30.978Z,22.75
2022-12-27T07:53:58.500Z,22.74
2022-12-27T07:56:28.111Z,22.77
2022-12-27T07:59:01.017Z,22.77
2022-12-27T08:01:50.910Z,22.76
2022-12-27T08:04:18.400Z,22.74
2022-12-27T08:06:46.513Z,22.71
2022-12-27T08:09:26.188Z,22.72
2022-12-27T08:11:53.603Z,22.71
2022-12-27T08:14:21.097Z,22.73
2022-12-27T08:16:48.555Z,22.71
2022-12-27T08:19:15.950Z,22.71
2022-12-27T08:21:43.275Z,22.69
2022-12-27T08:24:10.660Z,22.68
2022-12-27T08:26:38.088Z,22.68
2022-12-27T08:29:05.503Z,22.66
2022-12-27T08:31:32.858Z,22.65
2022-12-27T08:34:00.219Z,22.63
2022-12-27T08:39:14.967Z,22.58
2022-12-27T08:41:42.378Z,22.62
2022-12-27T08:44:10.709Z,22.64
2022-12-27T08:46:38.147Z,22.64
2022-12-27T08:49:06.324Z,22.59
2022-12-27T08:51:40.700Z,22.63
2022-12-27T08:54:09.211Z,22.63
2022-12-27T08:56:36.922Z,22.63
2022-12-27T08:59:04.560Z,22.59
2022-12-27T09:01:32.765Z,22.60
2022-12-27T09:04:00.421Z,22.59
2022-12-27T09:06:27.983Z,22.52
2022-12-27T09:08:56.063Z,22.57
2022-12-27T09:11:34.643Z,22.49
2022-12-27T09:14:04.812Z,22.55
2022-12-27T09:16:34.231Z,22.55
2022-12-27T09:19:02.319Z,22.47
2022-12-27T09:21:31.852Z,22.53
2022-12-27T09:23:59.937Z,22.52
2022-12-27T09:26:29.589Z,22.51
2022-12-27T09:28:57.855Z,22.45
2022-12-27T09:31:25.498Z,22.44
2022-12-27T09:33:54.078Z,22.49
2022-12-27T09:36:27.878Z,22.50
2022-12-27T09:38:57.596Z,22.48
2022-12-27T09:44:43.727Z,22.49
2022-12-27T09:47:15.837Z,22.48
2022-12-27T09:49:46.535Z,22.49
2022-12-27T09:52:20.146Z,22.43
2022-12-27T09:55:05.189Z,22.47
2022-12-27T09:57:42.045Z,22.51
2022-12-27T10:00:19.441Z,22.55
2022-12-27T10:03:05.967Z,22.50
2022-12-27T10:05:36.539Z,22.48
2022-12-27T10:08:53.118Z,22.46
2022-12-27T10:11:38.815Z,22.46
2022-12-27T10:14:30.223Z,22.47
2022-12-27T10:17:07.736Z,22.46
2022-12-27T10:19:48.105Z,22.45
2022-12-27T10:22:18.271Z,22.39
2022-12-27T10:24:53.337Z,22.43
2022-12-27T10:27:26.335Z,22.43
2022-12-27T10:29:55.715Z,22.42
2022-12-27T10:32:23.569Z,22.42
2022-12-27T10:35:01.238Z,22.40
2022-12-27T10:37:29.247Z,22.41
2022-12-27T10:40:10.135Z,22.43
2022-12-27T10:42:59.313Z,22.41
2022-12-27T10:45:39.506Z,22.37
2022-12-27T10:48:16.349Z,22.41
2022-12-27T10:50:48.321Z,22.41
2022-12-27T10:53:30.906Z,22.40
2022-12-27T10:56:26.855Z,22.39
2022-12-27T10:59:18.945Z,22.39
2022-12-27T11:02:18.503Z,22.37
2022-12-27T11:04:59.178Z,22.31
2022-12-27T11:07:32.978Z,22.31
2022-12-27T11:10:15.938Z,22.29
2022-12-27T11:12:59.514Z,22.35
2022-12-27T11:15:29.696Z,22.34
2022-12-27T11:18:18.555Z,22.34
2022-12-27T11:20:55.170Z,22.35
2022-12-27T11:23:27.020Z,22.28
2022-12-27T11:25:57.338Z,22.34
2022-12-27T11:28:38.471Z,22.27
2022-12-27T11:31:14.951Z,22.30
2022-12-27T11:33:49.233Z,22.32
2022-12-27T11:36:26.342Z,22.32
2022-12-27T11:38:53.850Z,22.33
2022-12-27T11:41:39.976Z,22.31
2022-12-27T11:44:47.000Z,22.31
2022-12-27T11:47:39.240Z,22.31
2022-12-27T11:50:24.985Z,22.30
2022-12-27T11:53:20.512Z,22.30
2022-12-27T11:55:59.730Z,22.29
2022-12-27T11:58:27.145Z,22.29
2022-12-27T12:01:40.876Z,22.29
2022-12-27T12:04:33.347Z,22.28
2022-12-27T12:07:38.695Z,22.26
2022-12-27T12:10:15.363Z,22.26
2022-12-27T12:13:07.928Z,22.17
2022-12-27T12:15:49.918Z,22.25
2022-12-27T12:18:47.252Z,22.27
2022-12-27T12:21:30.627Z,22.20
2022-12-27T12:24:16.592Z,22.26
2022-12-27T12:27:19.831Z,22.22
2022-12-27T12:29:59.259Z,22.24
2022-12-27T12:32:41.665Z,22.22
2022-12-27T12:35:32.798Z,22.23
2022-12-27T12:38:05.977Z,22.23
2022-12-27T12:41:14.245Z,22.23
2022-12-27T12:44:03.479Z,22.23
2022-12-27T12:46:45.481Z,22.17
2022-12-27T12:49:25.828Z,22.23
2022-12-27T12:52:13.135Z,22.22
2022-12-27T12:55:00.993Z,22.23
2022-12-27T12:57:28.404Z,22.23
2022-12-27T13:00:40.246Z,22.21
2022-12-27T13:03:28.900Z,22.22
2022-12-27T13:06:19.861Z,22.21
2022-12-27T13:09:19.088Z,22.22
2022-12-27T13:12:09.582Z,22.21
2022-12-27T13:14:39.611Z,22.23
2022-12-27T13:17:13.960Z,22.13
2022-12-27T13:19:47.000Z,22.18
2022-12-27T13:22:32.937Z,22.19
2022-12-27T13:25:06.216Z,22.20
2022-12-27T13:27:53.413Z,22.19
2022-12-27T13:30:59.129Z,22.20
2022-12-27T13:33:51.572Z,22.19
2022-12-27T13:36:28.146Z,22.19
2022-12-27T13:39:05.643Z,22.16
2022-12-27T13:41:48.914Z,22.18
2022-12-27T13:44:22.001Z,22.18
2022-12-27T13:47:15.291Z,22.10
2022-12-27T13:49:59.117Z,22.12
2022-12-27T13:52:39.735Z,22.19
2022-12-27T13:55:57.542Z,22.12
2022-12-27T13:58:37.036Z,22.17
2022-12-27T14:01:13.839Z,22.16
2022-12-27T14:03:44.075Z,22.18
2022-12-27T14:06:20.500Z,22.17
2022-12-27T14:09:00.141Z,22.16
2022-12-27T14:11:47.661Z,22.12
2022-12-27T14:14:18.382Z,22.16
2022-12-27T14:17:07.457Z,22.15
2022-12-27T14:20:02.300Z,22.15
2022-12-27T14:23:06.004Z,22.16
2022-12-27T14:26:04.292Z,22.16
2022-12-27T14:29:04.024Z,22.16
2022-12-27T14:31:53.139Z,22.10
2022-12-27T14:34:48.414Z,22.15
2022-12-27T14:37:34.451Z,22.14
2022-12-27T14:40:34.449Z,22.14
2022-12-27T14:43:34.866Z,22.08
2022-12-27T14:46:33.534Z,22.12
2022-12-27T14:49:13.012Z,22.13
2022-12-27T14:52:05.914Z,22.13
2022-12-27T14:54:51.796Z,22.14
2022-12-27T14:57:42.432Z,22.13
2022-12-27T15:00:17.329Z,22.06
2022-12-27T15:03:03.652Z,22.11
2022-12-27T15:05:40.267Z,22.13
2022-12-27T15:08:32.783Z,22.12
2022-12-27T15:11:42.134Z,22.14
2022-12-27T15:14:24.821Z,22.12
2022-12-27T15:17:04.303Z,22.08
2022-12-27T15:20:07.967Z,22.11
2022-12-27T15:22:59.285Z,22.06
2022-12-27T15:25:45.138Z,22.06
2022-12-27T15:28:13.179Z,22.12
2022-12-27T15:30:52.339Z,22.11
2022-12-27T15:33:19.747Z,22.11
2022-12-27T15:35:59.192Z,22.11
2022-12-27T15:38:41.108Z,22.10
2022-12-27T15:41:36.121Z,22.10
2022-12-27T15:44:42.155Z,22.11
2022-12-27T15:47:36.178Z,22.10
2022-12-27T15:50:26.127Z,22.08
2022-12-27T15:52:56.323Z,22.10
2022-12-27T15:55:45.825Z,22.02
2022-12-27T15:58:21.331Z,22.07
2022-12-27T16:01:10.817Z,22.07
2022-12-27T16:03:39.276Z,22.00
2022-12-27T16:06:09.038Z,22.00
2022-12-27T16:08:40.242Z,21.99
2022-12-27T16:11:12.663Z,22.04
2022-12-27T16:13:43.385Z,22.06
2022-12-27T16:16:32.637Z,22.07
2022-12-27T16:18:59.952Z,22.07
2022-12-27T16:21:38.426Z,22.04
2022-12-27T16:24:31.879Z,22.06
2022-12-27T16:27:07.732Z,21.99
2022-12-27T16:29:37.154Z,22.00
2022-12-27T16:32:20.947Z,22.08
2022-12-27T16:34:51.809Z,22.06
2022-12-27T16:37:29.374Z,22.07
2022-12-27T16:40:18.392Z,22.00
2022-12-27T16:42:57.641Z,22.05
2022-12-27T16:45:51.599Z,22.06
2022-12-27T16:48:51.085Z,21.99
2022-12-27T16:51:33.757Z,22.04
2022-12-27T16:54:16.727Z,22.05
2022-12-27T16:56:48.211Z,22.06
2022-12-27T16:59:54.096Z,22.04
2022-12-27T17:02:40.219Z,22.02
2022-12-27T17:05:28.077Z,22.04
2022-12-27T17:07:55.971Z,22.04
2022-12-27T17:10:34.875Z,22.02
2022-12-27T17:13:20.617Z,22.03
2022-12-27T17:15:57.555Z,22.04
2022-12-27T17:18:45.327Z,22.03
2022-12-27T17:21:29.636Z,22.02
2022-12-27T17:24:01.052Z,22.01
2022-12-27T17:27:16.783Z,22.02
2022-12-27T17:30:13.622Z,22.03
2022-12-27T17:33:06.504Z,22.03
2022-12-27T17:35:58.660Z,21.99
2022-12-27T17:38:50.556Z,22.04
2022-12-27T17:41:51.936Z,22.04
2022-12-27T17:44:40.440Z,22.05
2022-12-27T17:47:37.172Z,22.04
2022-12-27T17:50:12.308Z,22.03
2022-12-27T17:53:34.405Z,22.03
2022-12-27T17:56:29.706Z,22.03
2022-12-27T17:59:10.436Z,22.03
2022-12-27T18:01:54.548Z,22.01
2022-12-27T18:04:28.616Z,21.95
2022-12-27T18:07:07.669Z,22.02
2022-12-27T18:09:44.582Z,22.02
2022-12-27T18:12:38.028Z,22.01
2022-12-27T18:15:09.539Z,22.01
2022-12-27T18:17:38.392Z,22.00
2022-12-27T18:20:28.105Z,22.02
2022-12-27T18:23:01.686Z,22.03
2022-12-27T18:25:51.463Z,22.03
2022-12-27T18:28:33.706Z,22.03
2022-12-27T18:31:09.330Z,21.99
2022-12-27T18:34:06.922Z,22.02
2022-12-27T18:36:44.009Z,22.01
2022-12-27T18:39:17.756Z,22.00
2022-12-27T18:41:49.817Z,21.95
2022-12-27T18:44:26.819Z,22.03
2022-12-27T18:46:57.893Z,21.95
2022-12-27T18:49:25.263Z,22.02
2022-12-27T18:51:55.054Z,22.00
2022-12-27T18:54:28.473Z,22.00
2022-12-27T18:56:57.929Z,21.95
2022-12-27T18:59:31.274Z,21.96
2022-12-27T19:02:23.117Z,22.02
2022-12-27T19:05:18.909Z,22.01
2022-12-27T19:08:08.820Z,22.00
2022-12-27T19:10:37.144Z,21.94
2022-12-27T19:13:04.781Z,21.98
2022-12-27T19:15:35.155Z,22.00
2022-12-27T19:18:18.783Z,22.00
2022-12-27T19:20:54.301Z,22.00
2022-12-27T19:23:43.320Z,21.99
2022-12-27T19:26:16.580Z,21.99
2022-12-27T19:28:45.544Z,21.99
2022-12-27T19:31:19.369Z,21.97
2022-12-27T19:33:56.256Z,21.98
2022-12-27T19:36:32.102Z,21.91
2022-12-27T19:39:01.030Z,21.99
2022-12-27T19:41:29.959Z,21.99
2022-12-27T19:43:57.406Z,21.99
2022-12-27T19:46:30.747Z,21.98
2022-12-27T19:51:46.040Z,21.96
2022-12-27T19:54:18.143Z,21.95
2022-12-27T19:56:45.966Z,21.95
2022-12-27T19:59:16.412Z,21.96
2022-12-27T20:01:45.613Z,21.91
2022-12-27T20:04:15.081Z,21.94
2022-12-27T20:06:43.988Z,21.96
2022-12-27T20:09:20.167Z,21.97
2022-12-27T20:11:49.612Z,21.96
2022-12-27T20:14:18.000Z,21.97
2022-12-27T20:16:47.090Z,21.95
2022-12-27T20:19:16.678Z,21.91
2022-12-27T20:21:44.325Z,21.97
2022-12-27T20:24:13.072Z,21.96
2022-12-27T20:26:41.740Z,21.95
2022-12-27T20:29:11.306Z,21.95
2022-12-27T20:31:44.728Z,21.96
2022-12-27T20:34:13.241Z,21.97
2022-12-27T20:36:42.105Z,21.96
2022-12-27T20:39:09.812Z,21.95
2022-12-27T20:41:38.490Z,21.95
2022-12-27T20:44:06.127Z,21.97
2022-12-27T20:46:33.901Z,21.96
2022-12-27T20:49:01.442Z,21.96
2022-12-27T20:51:31.806Z,21.91
2022-12-27T20:54:02.026Z,21.91
2022-12-27T20:56:29.830Z,21.97
2022-12-27T20:58:57.588Z,21.99
2022-12-27T21:01:26.770Z,21.97
2022-12-27T21:03:56.137Z,21.95
2022-12-27T21:06:27.288Z,21.95
2022-12-27T21:08:57.537Z,21.97
2022-12-27T21:11:28.915Z,21.95
2022-12-27T21:13:56.605Z,21.96
2022-12-27T21:16:27.192Z,21.91
2022-12-27T21:18:55.845Z,21.97
2022-12-27T21:21:28.466Z,21.95
2022-12-27T21:23:58.057Z,21.95
2022-12-27T21:26:28.727Z,21.85
2022-12-27T21:28:57.545Z,21.95
2022-12-27T21:31:25.830Z,21.86
2022-12-27T21:33:53.542Z,21.94
2022-12-27T21:36:24.447Z,21.95
2022-12-27T21:38:52.408Z,21.95
2022-12-27T21:41:29.052Z,21.95
2022-12-27T21:43:57.071Z,21.95
2022-12-27T21:46:27.089Z,21.87
2022-12-27T21:48:59.960Z,21.92
2022-12-27T21:51:28.758Z,21.90
2022-12-27T21:53:56.763Z,21.95
2022-12-27T21:56:24.990Z,21.95
2022-12-27T21:58:55.479Z,21.89
2022-12-27T22:01:52.111Z,21.87
2022-12-27T22:04:21.212Z,21.94
2022-12-27T22:06:48.967Z,21.93
2022-12-27T22:09:16.620Z,21.93
2022-12-27T22:11:44.142Z,21.91
2022-12-27T22:14:11.601Z,21.87
2022-12-27T22:16:39.776Z,21.91
2022-12-27T22:19:09.248Z,21.92
2022-12-27T22:21:37.711Z,21.91
2022-12-27T22:24:05.525Z,21.92
2022-12-27T22:26:37.268Z,21.84
2022-12-27T22:29:06.576Z,21.87
2022-12-27T22:31:38.241Z,21.91
2022-12-27T22:34:06.520Z,21.91
2022-12-27T22:36:34.954Z,21.90
2022-12-27T22:39:02.605Z,21.86
2022-12-27T22:41:35.498Z,21.91
2022-12-27T22:44:06.217Z,21.91
2022-12-27T22:49:21.754Z,21.83
2022-12-27T22:51:49.185Z,21.90
2022-12-27T22:54:16.620Z,21.85
2022-12-27T22:56:44.295Z,21.82
2022-12-27T22:59:14.193Z,21.87
2022-12-27T23:01:42.924Z,21.89
2022-12-27T23:04:12.199Z,21.86
2022-12-27T23:06:40.555Z,21.87
2022-12-27T23:09:08.480Z,21.85
2022-12-27T23:11:38.406Z,21.87
2022-12-27T23:14:09.986Z,21.87
2022-12-27T23:16:39.421Z,21.85
2022-12-27T23:19:07.863Z,21.85
2022-12-27T23:21:35.609Z,21.89
2022-12-27T23:24:03.551Z,21.94
2022-12-27T23:26:31.000Z,21.97
2022-12-27T23:28:58.635Z,22.02
2022-12-27T23:31:27.178Z,22.04
2022-12-27T23:33:54.929Z,22.04
2022-12-27T23:36:22.887Z,22.07
2022-12-27T23:38:51.234Z,22.09
2022-12-27T23:41:21.553Z,22.09
2022-12-27T23:43:54.918Z,22.17
2022-12-27T23:46:34.551Z,22.18
2022-12-27T23:49:03.855Z,22.12
2022-12-27T23:51:32.130Z,22.13
2022-12-27T23:53:59.804Z,22.20
2022-12-27T23:56:30.574Z,22.22
2022-12-27T23:58:59.672Z,22.19
